Dodge City Regional Airport Dodge City US
ICAO: KDDC
IATA: DDC
Category: Medium
Scheduled Services: Yes

Elevation: 2594 ft
TransAlt. 18000 ft.

Airport Communications:
ASOS:118.525
KANSAS CITY CNTR:125.2
WICHITA RDO:122.35
CTAF/UNICOM:122.7

KDDC Zoom In..

Runways:

(A) RW 02 length 4649 ft width 100 ft
---- / hdg 24

(B) RW 14 length 6899 ft width 100 ft
ILS 111.70 / hdg 146

(C) RW 20 length 4649 ft width 100 ft
---- / hdg 204

(D) RW 32 length 6899 ft width 100 ft
---- / hdg 326

Location; KDDC
Day. 17 / Time. 06.52 Zulu
* Altimeter: 30.06
* Temperature: 23° c. 73.4°f.
* Wind from: 140° Speed 08 kn.
Dewpoint: 20° c.
Visibility: 10 Statute Miles.
Clouds: Clear (automated report).

KDDC 170652Z AUTO 14008KT 10SM CLR 23/20 A3006 RMK AO2 SLP145 T02330200


Wind From 140°
Speed 08 kn.

 
 
jpsmedia.com for Web Design worldairports.se 2018   terms of use